Terminal Aerodrome Forecast
Issued by NWS

Home | Current Version | Previous Version | Text Only | Print | Product List | Glossary On
Versions: 1 2 3 4 5 6 7 8 9 10 11 12 13
000
FTUS43 KUNR 041606 AAA
TAFGCC
TAF AMD
KGCC 041606Z 0416/0512 20009KT P6SM SCT080 BKN150
     FM041800 20009KT P6SM VCTS BKN050CB
      TEMPO 0420/0424 2SM TSRA BKN020CB
     FM050200 35010KT P6SM BKN100=

USA.gov is the U.S. government's official web portal to all federal, state and local government web resources and services.